createdAt,value
2023-03-13T00:01:29.191Z,13.13
2023-03-13T00:03:56.364Z,15.55
2023-03-13T00:06:25.647Z,13.80
2023-03-13T00:08:52.483Z,14.18
2023-03-13T00:11:19.466Z,14.00
2023-03-13T00:13:47.532Z,17.55
2023-03-13T00:16:16.651Z,16.55
2023-03-13T00:18:48.558Z,12.25
2023-03-13T00:21:16.588Z,20.27
2023-03-13T00:23:44.093Z,11.93
2023-03-13T00:26:14.010Z,17.02
2023-03-13T00:28:42.087Z,12.70
2023-03-13T00:31:12.028Z,11.80
2023-03-13T00:33:44.054Z,13.52
2023-03-13T00:36:25.667Z,16.75
2023-03-13T00:38:53.802Z,15.50
2023-03-13T00:41:29.356Z,13.75
2023-03-13T00:43:56.616Z,13.63
2023-03-13T00:46:26.356Z,14.60
2023-03-13T00:48:53.561Z,15.00
2023-03-13T00:51:21.874Z,16.65
2023-03-13T00:53:48.752Z,12.48
2023-03-13T00:56:17.360Z,14.52
2023-03-13T00:58:45.955Z,16.10
2023-03-13T01:01:27.762Z,10.60
2023-03-13T01:04:00.510Z,12.82
2023-03-13T01:06:30.172Z,11.95
2023-03-13T01:11:31.503Z,11.88
2023-03-13T01:14:00.885Z,15.38
2023-03-13T01:16:30.438Z,13.15
2023-03-13T01:19:00.609Z,9.20
2023-03-13T01:21:28.073Z,13.00
2023-03-13T01:23:56.178Z,16.25
2023-03-13T01:26:24.069Z,10.73
2023-03-13T01:28:51.437Z,11.60
2023-03-13T01:31:21.062Z,17.85
2023-03-13T01:33:49.714Z,9.63
2023-03-13T01:36:17.490Z,11.32
2023-03-13T01:38:44.624Z,12.23
2023-03-13T01:41:13.006Z,11.40
2023-03-13T01:43:40.126Z,12.38
2023-03-13T01:46:18.507Z,13.15
2023-03-13T01:48:54.824Z,11.30
2023-03-13T01:51:45.716Z,11.68
2023-03-13T01:54:17.272Z,9.55
2023-03-13T01:56:56.857Z,7.68
2023-03-13T01:59:28.583Z,10.80
2023-03-13T02:02:00.111Z,8.40
2023-03-13T02:04:31.021Z,7.82
2023-03-13T02:07:02.829Z,11.68
2023-03-13T02:09:33.581Z,12.23
2023-03-13T02:12:11.794Z,9.55
2023-03-13T02:14:41.845Z,11.80
2023-03-13T02:17:08.711Z,7.60
2023-03-13T02:19:38.412Z,10.50
2023-03-13T02:22:33.563Z,8.82
2023-03-13T02:25:15.420Z,7.72
2023-03-13T02:27:44.923Z,8.52
2023-03-13T02:30:13.743Z,8.80
2023-03-13T02:32:41.367Z,9.50
2023-03-13T02:35:11.723Z,8.32
2023-03-13T02:37:41.890Z,9.73
2023-03-13T02:40:18.006Z,9.05
2023-03-13T02:42:46.289Z,8.20
2023-03-13T02:45:17.781Z,8.85
2023-03-13T02:47:44.995Z,7.45
2023-03-13T02:50:13.552Z,8.57
2023-03-13T02:52:46.673Z,9.52
2023-03-13T02:55:28.396Z,10.30
2023-03-13T02:57:55.328Z,7.57
2023-03-13T03:00:26.723Z,8.05
2023-03-13T03:02:55.991Z,6.88
2023-03-13T03:05:23.194Z,8.32
2023-03-13T03:07:51.133Z,10.10
2023-03-13T03:10:18.935Z,9.00
2023-03-13T03:12:46.751Z,9.05
2023-03-13T03:15:13.838Z,9.63
2023-03-13T03:17:44.774Z,9.13
2023-03-13T03:20:12.186Z,9.48
2023-03-13T03:22:42.080Z,7.93
2023-03-13T03:25:09.600Z,9.30
2023-03-13T03:27:36.594Z,8.77
2023-03-13T03:30:07.003Z,8.85
2023-03-13T03:32:35.843Z,10.18
2023-03-13T03:35:02.773Z,10.75
2023-03-13T03:37:29.933Z,10.02
2023-03-13T03:39:57.796Z,13.80
2023-03-13T03:42:24.793Z,11.57
2023-03-13T03:44:51.612Z,13.27
2023-03-13T03:47:19.031Z,7.55
2023-03-13T03:49:47.944Z,12.30
2023-03-13T03:52:16.022Z,15.35
2023-03-13T03:54:44.046Z,11.20
2023-03-13T03:57:11.489Z,16.95
2023-03-13T03:59:39.640Z,13.57
2023-03-13T04:02:08.568Z,13.57
2023-03-13T04:04:35.999Z,11.25
2023-03-13T04:07:20.440Z,11.23
2023-03-13T04:09:47.293Z,12.07
2023-03-13T04:12:22.156Z,17.88
2023-03-13T04:14:51.627Z,13.68
2023-03-13T04:17:18.561Z,12.65
2023-03-13T04:19:49.662Z,11.82
2023-03-13T04:22:16.873Z,10.02
2023-03-13T04:24:49.946Z,15.88
2023-03-13T04:27:17.527Z,11.60
2023-03-13T04:29:46.604Z,13.13
2023-03-13T04:32:33.687Z,16.02
2023-03-13T04:35:19.156Z,11.10
2023-03-13T04:38:06.153Z,9.30
2023-03-13T04:40:49.246Z,9.88
2023-03-13T04:43:38.517Z,10.88
2023-03-13T04:46:29.513Z,14.35
2023-03-13T04:49:28.842Z,8.70
2023-03-13T04:52:18.902Z,10.82
2023-03-13T04:55:06.505Z,9.60
2023-03-13T04:57:53.555Z,8.90
2023-03-13T05:00:46.887Z,11.48
2023-03-13T05:03:32.264Z,10.77
2023-03-13T05:05:59.044Z,10.88
2023-03-13T05:08:44.716Z,11.65
2023-03-13T05:11:22.822Z,8.55
2023-03-13T05:14:16.675Z,9.32
2023-03-13T05:17:06.708Z,8.43
2023-03-13T05:19:52.171Z,8.60
2023-03-13T05:22:37.575Z,7.00
2023-03-13T05:25:07.349Z,9.25
2023-03-13T05:27:53.197Z,10.73
2023-03-13T05:30:38.537Z,9.52
2023-03-13T05:33:34.872Z,12.27
2023-03-13T05:36:20.320Z,9.27
2023-03-13T05:39:02.310Z,10.30
2023-03-13T05:41:41.590Z,10.30
2023-03-13T05:44:26.761Z,10.25
2023-03-13T05:47:19.692Z,10.25
2023-03-13T05:49:54.868Z,9.60
2023-03-13T05:52:34.239Z,11.95
2023-03-13T05:55:16.501Z,9.32
2023-03-13T05:58:15.598Z,12.48
2023-03-13T06:01:09.865Z,8.05
2023-03-13T06:06:23.114Z,9.30
2023-03-13T06:08:53.704Z,9.75
2023-03-13T06:11:22.029Z,11.32
2023-03-13T06:13:50.912Z,12.65
2023-03-13T06:16:44.218Z,10.25
2023-03-13T06:19:20.022Z,11.45
2023-03-13T06:21:46.859Z,8.90
2023-03-13T06:24:13.677Z,7.15
2023-03-13T06:26:40.407Z,10.05
2023-03-13T06:29:07.166Z,7.93
2023-03-13T06:31:33.996Z,9.77
2023-03-13T06:34:00.769Z,12.18
2023-03-13T06:36:27.672Z,10.02
2023-03-13T06:38:54.486Z,6.35
2023-03-13T06:41:21.266Z,9.55
2023-03-13T06:43:48.025Z,9.50
2023-03-13T06:46:18.349Z,11.70
2023-03-13T06:48:46.417Z,13.55
2023-03-13T06:51:14.955Z,8.57
2023-03-13T06:53:42.027Z,10.65
2023-03-13T06:56:09.875Z,8.52
2023-03-13T06:58:37.326Z,10.23
2023-03-13T07:01:12.188Z,12.10
2023-03-13T07:03:41.370Z,11.65
2023-03-13T07:06:09.174Z,10.05
2023-03-13T07:08:37.463Z,8.80
2023-03-13T07:11:07.385Z,9.38
2023-03-13T07:13:34.920Z,12.23
2023-03-13T07:16:04.510Z,11.70
2023-03-13T07:18:32.397Z,10.73
2023-03-13T07:21:01.439Z,9.90
2023-03-13T07:23:29.586Z,9.80
2023-03-13T07:25:59.169Z,9.98
2023-03-13T07:28:27.321Z,7.57
2023-03-13T07:30:54.381Z,9.40
2023-03-13T07:33:21.361Z,9.52
2023-03-13T07:35:52.413Z,9.30
2023-03-13T07:38:20.104Z,9.82
2023-03-13T07:40:57.207Z,11.48
2023-03-13T07:43:24.935Z,10.50
2023-03-13T07:46:00.002Z,8.30
2023-03-13T07:48:32.692Z,9.27
2023-03-13T07:51:00.209Z,20.25
2023-03-13T07:53:27.520Z,8.10
2023-03-13T07:56:00.270Z,9.68
2023-03-13T07:58:30.013Z,8.10
2023-03-13T08:00:56.976Z,7.80
2023-03-13T08:03:24.868Z,7.47
2023-03-13T08:06:00.108Z,7.63
2023-03-13T08:08:27.954Z,7.70
2023-03-13T08:10:59.246Z,9.88
2023-03-13T08:13:26.130Z,9.77
2023-03-13T08:15:52.907Z,8.48
2023-03-13T08:18:19.728Z,7.25
2023-03-13T08:20:46.884Z,7.53
2023-03-13T08:23:13.719Z,7.03
2023-03-13T08:25:40.587Z,8.77
2023-03-13T08:28:07.391Z,7.80
2023-03-13T08:30:34.281Z,10.40
2023-03-13T08:33:01.086Z,9.73
2023-03-13T08:35:29.529Z,9.20
2023-03-13T08:37:56.279Z,10.70
2023-03-13T08:40:23.043Z,10.50
2023-03-13T08:42:49.982Z,9.45
2023-03-13T08:45:17.909Z,8.90
2023-03-13T08:47:44.828Z,7.32
2023-03-13T08:50:11.950Z,5.95
2023-03-13T08:52:38.860Z,9.93
2023-03-13T08:55:06.210Z,8.65
2023-03-13T08:57:33.016Z,10.45
2023-03-13T08:59:59.788Z,10.63
2023-03-13T09:02:26.630Z,9.88
2023-03-13T09:04:53.420Z,8.73
2023-03-13T09:07:20.244Z,11.40
2023-03-13T09:09:47.198Z,6.45
2023-03-13T09:12:29.654Z,7.65
2023-03-13T09:14:57.490Z,5.85
2023-03-13T09:17:24.318Z,7.88
2023-03-13T09:20:00.098Z,10.07
2023-03-13T09:22:27.270Z,9.85
2023-03-13T09:24:54.057Z,7.25
2023-03-13T09:27:20.944Z,7.13
2023-03-13T09:29:47.716Z,7.20
2023-03-13T09:32:14.585Z,8.18
2023-03-13T09:34:41.328Z,8.18
2023-03-13T09:37:08.788Z,7.65
2023-03-13T09:39:35.644Z,7.60
2023-03-13T09:42:15.415Z,9.88
2023-03-13T09:44:50.237Z,8.32
2023-03-13T09:47:30.128Z,8.30
2023-03-13T09:50:09.827Z,9.27
2023-03-13T09:52:41.553Z,8.48
2023-03-13T09:55:36.557Z,11.00
2023-03-13T09:58:22.140Z,12.93
2023-03-13T10:01:02.232Z,13.10
2023-03-13T10:03:48.565Z,9.60
2023-03-13T10:06:19.507Z,8.45
2023-03-13T10:08:46.367Z,13.30
2023-03-13T10:11:25.834Z,12.98
2023-03-13T10:14:13.195Z,8.40
2023-03-13T10:16:55.108Z,9.73
2023-03-13T10:19:31.312Z,10.85
2023-03-13T10:22:01.715Z,8.98
2023-03-13T10:24:37.784Z,7.40
2023-03-13T10:27:04.659Z,8.45
2023-03-13T10:29:31.708Z,4.97
2023-03-13T10:32:03.223Z,8.70
2023-03-13T10:34:46.682Z,5.00
2023-03-13T10:37:20.839Z,8.88
2023-03-13T10:39:47.689Z,8.18
2023-03-13T10:42:26.673Z,6.72
2023-03-13T10:45:02.180Z,8.27
2023-03-13T10:47:33.430Z,5.82
2023-03-13T10:50:01.926Z,6.15
2023-03-13T10:52:34.532Z,11.40
2023-03-13T10:55:05.692Z,6.00
2023-03-13T10:57:36.748Z,17.77
2023-03-13T11:00:32.928Z,14.15
2023-03-13T11:03:00.218Z,10.00
2023-03-13T11:05:38.694Z,8.50
2023-03-13T11:08:25.297Z,6.65
2023-03-13T11:11:15.491Z,7.07
2023-03-13T11:13:44.037Z,8.63
2023-03-13T11:16:20.535Z,7.25
2023-03-13T11:19:19.924Z,8.38
2023-03-13T11:22:16.740Z,5.72
2023-03-13T11:24:55.322Z,4.03
2023-03-13T11:27:46.819Z,6.72
2023-03-13T11:30:44.749Z,8.75
2023-03-13T11:33:24.752Z,8.27
2023-03-13T11:36:06.142Z,6.65
2023-03-13T11:38:39.935Z,5.45
2023-03-13T11:41:35.772Z,7.03
2023-03-13T11:44:29.527Z,7.50
2023-03-13T11:47:32.031Z,9.90
2023-03-13T11:50:06.529Z,8.35
2023-03-13T11:52:59.067Z,7.82
2023-03-13T11:56:01.146Z,7.25
2023-03-13T12:01:17.758Z,6.53
2023-03-13T12:04:06.525Z,8.18
2023-03-13T12:06:37.790Z,8.73
2023-03-13T12:09:31.611Z,11.52
2023-03-13T12:12:11.596Z,10.43
2023-03-13T12:14:50.957Z,10.82
2023-03-13T12:17:37.130Z,8.82
2023-03-13T12:20:13.315Z,7.78
2023-03-13T12:22:48.242Z,12.10
2023-03-13T12:25:44.933Z,10.77
2023-03-13T12:28:31.955Z,8.27
2023-03-13T12:31:01.634Z,10.70
2023-03-13T12:33:36.119Z,13.15
2023-03-13T12:36:20.507Z,13.63
2023-03-13T12:38:54.062Z,11.45
2023-03-13T12:41:43.202Z,13.07
2023-03-13T12:44:17.109Z,11.15
2023-03-13T12:47:16.667Z,10.80
2023-03-13T12:49:50.249Z,14.35
2023-03-13T12:52:44.841Z,11.55
2023-03-13T12:55:37.800Z,15.15
2023-03-13T12:58:31.511Z,13.40
2023-03-13T13:01:04.099Z,9.75
2023-03-13T13:03:58.834Z,13.23
2023-03-13T13:06:27.539Z,14.30
2023-03-13T13:08:54.273Z,14.70
2023-03-13T13:11:47.381Z,13.10
2023-03-13T13:14:17.368Z,13.38
2023-03-13T13:16:52.715Z,12.52
2023-03-13T13:19:25.528Z,12.88
2023-03-13T13:22:39.548Z,12.93
2023-03-13T13:25:24.207Z,15.23
2023-03-13T13:27:52.091Z,21.13
2023-03-13T13:30:18.884Z,11.35
2023-03-13T13:32:55.903Z,13.43
2023-03-13T13:35:35.361Z,14.95
2023-03-13T13:38:26.865Z,14.70
2023-03-13T13:41:11.384Z,12.80
2023-03-13T13:43:43.553Z,12.50
2023-03-13T13:46:19.243Z,13.98
2023-03-13T13:48:46.468Z,14.98
2023-03-13T13:51:18.577Z,16.60
2023-03-13T13:53:47.979Z,14.30
2023-03-13T13:56:36.849Z,11.98
2023-03-13T13:59:26.926Z,16.02
2023-03-13T14:02:10.449Z,14.07
2023-03-13T14:04:55.339Z,13.35
2023-03-13T14:07:37.448Z,15.75
2023-03-13T14:10:26.152Z,15.23
2023-03-13T14:12:56.418Z,14.07
2023-03-13T14:15:29.143Z,14.48
2023-03-13T14:18:20.371Z,8.48
2023-03-13T14:20:50.122Z,13.93
2023-03-13T14:23:44.940Z,13.73
2023-03-13T14:26:14.035Z,12.35
2023-03-13T14:28:43.584Z,14.52
2023-03-13T14:31:12.185Z,13.77
2023-03-13T14:33:39.197Z,18.08
2023-03-13T14:36:06.290Z,10.60
2023-03-13T14:38:33.558Z,17.38
2023-03-13T14:41:00.449Z,14.23
2023-03-13T14:43:36.133Z,12.88
2023-03-13T14:46:29.621Z,15.95
2023-03-13T14:48:56.774Z,13.32
2023-03-13T14:51:27.940Z,16.08
2023-03-13T14:53:59.042Z,15.70
2023-03-13T14:56:42.390Z,11.75
2023-03-13T14:59:24.377Z,11.50
2023-03-13T15:02:15.251Z,16.95
2023-03-13T15:05:31.885Z,19.80
2023-03-13T15:07:58.908Z,11.77
2023-03-13T15:10:33.283Z,19.17
2023-03-13T15:13:13.794Z,8.95
2023-03-13T15:15:40.627Z,14.43
2023-03-13T15:18:17.812Z,14.13
2023-03-13T15:20:48.535Z,13.00
2023-03-13T15:23:15.506Z,16.38
2023-03-13T15:25:42.449Z,11.10
2023-03-13T15:28:21.481Z,14.45
2023-03-13T15:30:51.331Z,17.70
2023-03-13T15:33:23.985Z,14.95
2023-03-13T15:35:51.010Z,12.15
2023-03-13T15:38:20.306Z,15.18
2023-03-13T15:40:47.403Z,18.95
2023-03-13T15:43:14.641Z,14.27
2023-03-13T15:45:43.924Z,15.23
2023-03-13T15:48:17.011Z,20.10
2023-03-13T15:50:44.603Z,12.60
2023-03-13T15:53:24.201Z,10.77
2023-03-13T15:55:55.124Z,15.10
2023-03-13T15:58:22.295Z,17.33
2023-03-13T16:00:49.435Z,18.17
2023-03-13T16:03:22.774Z,14.60
2023-03-13T16:05:49.598Z,13.48
2023-03-13T16:08:34.328Z,10.98
2023-03-13T16:11:02.173Z,18.67
2023-03-13T16:13:28.979Z,16.63
2023-03-13T16:15:56.602Z,16.15
2023-03-13T16:18:24.766Z,19.42
2023-03-13T16:20:53.000Z,16.00
2023-03-13T16:23:19.740Z,16.92
2023-03-13T16:25:48.389Z,18.05
2023-03-13T16:28:15.954Z,18.73
2023-03-13T16:30:47.566Z,16.83
2023-03-13T16:33:15.068Z,15.40
2023-03-13T16:35:42.224Z,15.43
2023-03-13T16:38:12.197Z,14.05
2023-03-13T16:40:38.989Z,12.73
2023-03-13T16:43:05.729Z,14.32
2023-03-13T16:45:32.560Z,16.67
2023-03-13T16:47:59.381Z,15.25
2023-03-13T16:50:36.278Z,15.13
2023-03-13T16:55:36.028Z,14.70
2023-03-13T16:58:03.030Z,17.23
2023-03-13T17:00:31.395Z,17.00
2023-03-13T17:02:58.982Z,17.35
2023-03-13T17:05:27.417Z,17.05
2023-03-13T17:07:54.342Z,16.55
2023-03-13T17:10:25.651Z,16.38
2023-03-13T17:12:52.888Z,18.48
2023-03-13T17:15:20.664Z,14.18
2023-03-13T17:17:52.170Z,18.85
2023-03-13T17:20:22.300Z,18.70
2023-03-13T17:22:49.349Z,17.77
2023-03-13T17:25:16.536Z,19.70
2023-03-13T17:27:43.917Z,17.02
2023-03-13T17:30:27.406Z,13.25
2023-03-13T17:32:54.495Z,17.02
2023-03-13T17:35:21.891Z,16.75
2023-03-13T17:37:49.309Z,16.80
2023-03-13T17:40:26.795Z,18.08
2023-03-13T17:42:54.045Z,18.45
2023-03-13T17:45:20.895Z,15.60
2023-03-13T17:47:49.321Z,14.10
2023-03-13T17:50:27.091Z,14.60
2023-03-13T17:52:54.356Z,14.75
2023-03-13T17:55:21.805Z,19.08
2023-03-13T17:57:48.899Z,15.52
2023-03-13T18:00:29.108Z,22.52
2023-03-13T18:02:56.680Z,18.38
2023-03-13T18:05:23.489Z,14.32
2023-03-13T18:07:50.826Z,19.45
2023-03-13T18:10:26.617Z,14.35
2023-03-13T18:12:53.656Z,17.83
2023-03-13T18:15:21.600Z,17.05
2023-03-13T18:17:48.472Z,16.90
2023-03-13T18:20:28.173Z,17.20
2023-03-13T18:22:59.387Z,14.95
2023-03-13T18:25:27.994Z,19.42
2023-03-13T18:27:54.893Z,19.05
2023-03-13T18:30:23.592Z,21.27
2023-03-13T18:32:50.455Z,17.98
2023-03-13T18:35:18.109Z,23.80
2023-03-13T18:37:47.747Z,23.33
2023-03-13T18:40:22.063Z,23.67
2023-03-13T18:42:49.144Z,19.25
2023-03-13T18:45:18.129Z,17.13
2023-03-13T18:47:45.493Z,23.52
2023-03-13T18:50:22.393Z,18.88
2023-03-13T18:55:16.493Z,19.70
2023-03-13T18:57:43.538Z,24.77
2023-03-13T19:00:19.607Z,18.75
2023-03-13T19:02:47.270Z,20.63
2023-03-13T19:05:14.468Z,21.13
2023-03-13T19:07:41.642Z,18.00
2023-03-13T19:10:29.320Z,20.42
2023-03-13T19:12:56.912Z,24.95
2023-03-13T19:15:28.485Z,22.00
2023-03-13T19:17:56.189Z,25.88
2023-03-13T19:20:23.914Z,22.42
2023-03-13T19:22:50.749Z,24.27
2023-03-13T19:25:17.642Z,22.10
2023-03-13T19:27:45.711Z,20.05
2023-03-13T19:30:21.346Z,21.98
2023-03-13T19:32:48.461Z,24.77
2023-03-13T19:35:19.130Z,21.27
2023-03-13T19:40:25.731Z,15.85
2023-03-13T19:42:52.638Z,22.02
2023-03-13T19:45:21.829Z,22.58
2023-03-13T19:47:48.743Z,19.75
2023-03-13T19:50:18.580Z,23.25
2023-03-13T19:52:46.416Z,22.83
2023-03-13T19:55:13.504Z,20.42
2023-03-13T19:57:40.356Z,20.33
2023-03-13T20:00:10.524Z,23.23
2023-03-13T20:02:39.178Z,15.70
2023-03-13T20:05:08.443Z,19.17
2023-03-13T20:07:36.323Z,21.83
2023-03-13T20:10:05.306Z,17.10
2023-03-13T20:12:32.449Z,20.25
2023-03-13T20:14:59.359Z,22.02
2023-03-13T20:17:26.390Z,17.65
2023-03-13T20:19:53.197Z,22.38
2023-03-13T20:22:20.102Z,19.17
2023-03-13T20:24:46.943Z,18.58
2023-03-13T20:27:13.785Z,19.80
2023-03-13T20:29:41.493Z,19.42
2023-03-13T20:32:08.492Z,18.65
2023-03-13T20:34:35.511Z,17.20
2023-03-13T20:37:03.858Z,21.92
2023-03-13T20:39:31.383Z,21.30
2023-03-13T20:42:02.612Z,19.30
2023-03-13T20:44:29.952Z,23.83
2023-03-13T20:46:56.756Z,15.48
2023-03-13T20:49:23.596Z,18.25
2023-03-13T20:51:50.538Z,19.58
2023-03-13T20:54:17.385Z,17.88
2023-03-13T20:56:44.337Z,15.75
2023-03-13T20:59:11.422Z,20.13
2023-03-13T21:01:38.264Z,16.42
2023-03-13T21:04:05.281Z,16.52
2023-03-13T21:06:32.108Z,17.92
2023-03-13T21:08:59.022Z,19.90
2023-03-13T21:11:26.191Z,17.10
2023-03-13T21:13:53.010Z,20.95
2023-03-13T21:16:20.078Z,18.13
2023-03-13T21:18:47.423Z,24.23
2023-03-13T21:21:19.541Z,18.60
2023-03-13T21:23:46.863Z,21.50
2023-03-13T21:26:14.642Z,22.27
2023-03-13T21:28:42.133Z,15.02
2023-03-13T21:31:17.295Z,19.63
2023-03-13T21:33:45.831Z,25.23
2023-03-13T21:36:14.794Z,22.35
2023-03-13T21:38:42.613Z,21.27
2023-03-13T21:41:11.478Z,22.70
2023-03-13T21:43:41.389Z,22.02
2023-03-13T21:46:12.640Z,19.38
2023-03-13T21:48:40.793Z,18.58
2023-03-13T21:51:08.130Z,19.92
2023-03-13T21:53:35.650Z,19.27
2023-03-13T21:56:02.646Z,16.25
2023-03-13T21:58:29.899Z,18.33
2023-03-13T22:00:57.815Z,21.83
2023-03-13T22:03:26.485Z,17.85
2023-03-13T22:05:53.377Z,19.85
2023-03-13T22:08:20.302Z,19.27
2023-03-13T22:10:52.408Z,21.88
2023-03-13T22:13:19.186Z,19.65
2023-03-13T22:15:46.848Z,16.42
2023-03-13T22:18:15.302Z,19.63
2023-03-13T22:20:42.737Z,14.25
2023-03-13T22:23:11.152Z,18.40
2023-03-13T22:25:40.421Z,16.95
2023-03-13T22:28:07.864Z,20.23
2023-03-13T22:30:35.347Z,20.60
2023-03-13T22:33:03.819Z,17.80
2023-03-13T22:35:31.660Z,20.00
2023-03-13T22:37:58.527Z,19.27
2023-03-13T22:40:25.403Z,17.27
2023-03-13T22:42:52.132Z,20.10
2023-03-13T22:45:19.441Z,13.48
2023-03-13T22:47:46.603Z,17.48
2023-03-13T22:50:14.083Z,15.35
2023-03-13T22:52:41.333Z,16.25
2023-03-13T22:55:08.590Z,17.55
2023-03-13T22:57:35.334Z,20.05
2023-03-13T23:00:02.048Z,14.65
2023-03-13T23:02:29.289Z,16.83
2023-03-13T23:04:58.378Z,15.00
2023-03-13T23:07:28.453Z,20.00
2023-03-13T23:09:56.409Z,17.55
2023-03-13T23:12:24.335Z,18.35
2023-03-13T23:14:52.207Z,17.40
2023-03-13T23:17:19.044Z,13.30
2023-03-13T23:19:46.234Z,20.52
2023-03-13T23:22:17.866Z,14.90
2023-03-13T23:24:45.095Z,14.60
2023-03-13T23:27:12.072Z,18.17
2023-03-13T23:29:39.436Z,12.90
2023-03-13T23:32:06.852Z,16.23
2023-03-13T23:34:35.942Z,17.77
2023-03-13T23:37:03.043Z,15.45
2023-03-13T23:39:29.877Z,16.40
2023-03-13T23:41:56.795Z,15.70
2023-03-13T23:44:23.666Z,14.50
2023-03-13T23:46:50.462Z,11.25
2023-03-13T23:49:17.451Z,19.08
2023-03-13T23:51:44.398Z,14.80
2023-03-13T23:54:11.239Z,17.23
2023-03-13T23:56:37.959Z,13.07
2023-03-13T23:59:04.702Z,15.60
